sensor_id;sensor_type;location;lat;lon;timestamp;P1;durP1;ratioP1;P2;durP2;ratioP2
5279;SDS011;2663;53.588;10.010;2023-06-10T00:00:26;13.30;;;5.03;;
5279;SDS011;2663;53.588;10.010;2023-06-10T00:02:53;18.00;;;6.50;;
5279;SDS011;2663;53.588;10.010;2023-06-10T00:05:20;10.77;;;4.97;;
5279;SDS011;2663;53.588;10.010;2023-06-10T00:07:47;12.87;;;5.30;;
5279;SDS011;2663;53.588;10.010;2023-06-10T00:10:16;20.57;;;5.07;;
5279;SDS011;2663;53.588;10.010;2023-06-10T00:12:42;19.00;;;5.47;;
5279;SDS011;2663;53.588;10.010;2023-06-10T00:15:10;20.83;;;5.77;;
5279;SDS011;2663;53.588;10.010;2023-06-10T00:17:37;12.57;;;4.90;;
5279;SDS011;2663;53.588;10.010;2023-06-10T00:20:07;21.20;;;4.33;;
5279;SDS011;2663;53.588;10.010;2023-06-10T00:22:37;14.43;;;4.90;;
5279;SDS011;2663;53.588;10.010;2023-06-10T00:25:05;13.13;;;4.77;;
5279;SDS011;2663;53.588;10.010;2023-06-10T00:27:33;12.63;;;4.20;;
5279;SDS011;2663;53.588;10.010;2023-06-10T00:30:04;12.97;;;5.10;;
5279;SDS011;2663;53.588;10.010;2023-06-10T00:32:33;10.67;;;4.10;;
5279;SDS011;2663;53.588;10.010;2023-06-10T00:35:05;7.40;;;4.07;;
5279;SDS011;2663;53.588;10.010;2023-06-10T00:37:33;11.30;;;3.70;;
5279;SDS011;2663;53.588;10.010;2023-06-10T00:40:04;9.13;;;4.27;;
5279;SDS011;2663;53.588;10.010;2023-06-10T00:42:31;14.40;;;4.17;;
5279;SDS011;2663;53.588;10.010;2023-06-10T00:44:58;5.63;;;3.90;;
5279;SDS011;2663;53.588;10.010;2023-06-10T00:47:25;9.40;;;4.37;;
5279;SDS011;2663;53.588;10.010;2023-06-10T00:49:52;16.73;;;5.13;;
5279;SDS011;2663;53.588;10.010;2023-06-10T00:52:20;9.93;;;5.13;;
5279;SDS011;2663;53.588;10.010;2023-06-10T00:54:52;11.33;;;4.43;;
5279;SDS011;2663;53.588;10.010;2023-06-10T00:57:19;9.30;;;4.53;;
5279;SDS011;2663;53.588;10.010;2023-06-10T00:59:47;9.93;;;3.80;;
5279;SDS011;2663;53.588;10.010;2023-06-10T01:02:15;11.20;;;3.87;;
5279;SDS011;2663;53.588;10.010;2023-06-10T01:04:42;8.57;;;3.80;;
5279;SDS011;2663;53.588;10.010;2023-06-10T01:07:10;6.50;;;3.70;;
5279;SDS011;2663;53.588;10.010;2023-06-10T01:12:34;14.03;;;4.60;;
5279;SDS011;2663;53.588;10.010;2023-06-10T01:15:16;11.33;;;3.97;;
5279;SDS011;2663;53.588;10.010;2023-06-10T01:20:42;10.23;;;3.67;;
5279;SDS011;2663;53.588;10.010;2023-06-10T01:23:10;9.63;;;4.00;;
5279;SDS011;2663;53.588;10.010;2023-06-10T01:25:38;11.97;;;5.07;;
5279;SDS011;2663;53.588;10.010;2023-06-10T01:31:01;8.17;;;3.30;;
5279;SDS011;2663;53.588;10.010;2023-06-10T01:33:36;11.50;;;3.73;;
5279;SDS011;2663;53.588;10.010;2023-06-10T01:36:07;10.63;;;4.30;;
5279;SDS011;2663;53.588;10.010;2023-06-10T01:38:42;13.47;;;4.57;;
5279;SDS011;2663;53.588;10.010;2023-06-10T01:41:10;11.20;;;3.47;;
5279;SDS011;2663;53.588;10.010;2023-06-10T01:43:39;13.70;;;3.63;;
5279;SDS011;2663;53.588;10.010;2023-06-10T01:46:06;18.53;;;3.93;;
5279;SDS011;2663;53.588;10.010;2023-06-10T01:48:33;12.20;;;3.40;;
5279;SDS011;2663;53.588;10.010;2023-06-10T01:50:59;12.80;;;3.97;;
5279;SDS011;2663;53.588;10.010;2023-06-10T01:53:26;9.90;;;3.70;;
5279;SDS011;2663;53.588;10.010;2023-06-10T01:55:53;9.97;;;3.00;;
5279;SDS011;2663;53.588;10.010;2023-06-10T01:58:20;11.03;;;3.63;;
5279;SDS011;2663;53.588;10.010;2023-06-10T02:00:46;8.33;;;2.93;;
5279;SDS011;2663;53.588;10.010;2023-06-10T02:03:13;6.80;;;3.07;;
5279;SDS011;2663;53.588;10.010;2023-06-10T02:05:40;8.40;;;3.13;;
5279;SDS011;2663;53.588;10.010;2023-06-10T02:08:07;5.03;;;3.33;;
5279;SDS011;2663;53.588;10.010;2023-06-10T02:10:34;7.97;;;2.90;;
5279;SDS011;2663;53.588;10.010;2023-06-10T02:13:01;4.40;;;2.97;;
5279;SDS011;2663;53.588;10.010;2023-06-10T02:15:27;18.70;;;3.50;;
5279;SDS011;2663;53.588;10.010;2023-06-10T02:17:54;7.70;;;4.87;;
5279;SDS011;2663;53.588;10.010;2023-06-10T02:20:22;12.07;;;3.27;;
5279;SDS011;2663;53.588;10.010;2023-06-10T02:22:48;9.13;;;3.10;;
5279;SDS011;2663;53.588;10.010;2023-06-10T02:25:15;6.40;;;2.80;;
5279;SDS011;2663;53.588;10.010;2023-06-10T02:27:42;5.87;;;2.57;;
5279;SDS011;2663;53.588;10.010;2023-06-10T02:30:09;9.17;;;2.93;;
5279;SDS011;2663;53.588;10.010;2023-06-10T02:32:36;6.70;;;2.80;;
5279;SDS011;2663;53.588;10.010;2023-06-10T02:35:03;8.40;;;2.53;;
5279;SDS011;2663;53.588;10.010;2023-06-10T02:37:30;9.13;;;3.23;;
5279;SDS011;2663;53.588;10.010;2023-06-10T02:39:57;14.30;;;2.60;;
5279;SDS011;2663;53.588;10.010;2023-06-10T02:42:23;7.13;;;2.47;;
5279;SDS011;2663;53.588;10.010;2023-06-10T02:44:50;10.53;;;3.53;;
5279;SDS011;2663;53.588;10.010;2023-06-10T02:47:17;7.27;;;2.33;;
5279;SDS011;2663;53.588;10.010;2023-06-10T02:49:43;12.43;;;3.17;;
5279;SDS011;2663;53.588;10.010;2023-06-10T02:52:10;6.30;;;3.30;;
5279;SDS011;2663;53.588;10.010;2023-06-10T02:54:37;4.63;;;2.60;;
5279;SDS011;2663;53.588;10.010;2023-06-10T02:57:04;9.10;;;2.63;;
5279;SDS011;2663;53.588;10.010;2023-06-10T02:59:32;6.20;;;2.67;;
5279;SDS011;2663;53.588;10.010;2023-06-10T03:01:59;7.83;;;2.90;;
5279;SDS011;2663;53.588;10.010;2023-06-10T03:04:27;8.73;;;2.50;;
5279;SDS011;2663;53.588;10.010;2023-06-10T03:06:55;9.70;;;3.50;;
5279;SDS011;2663;53.588;10.010;2023-06-10T03:09:22;6.77;;;2.40;;
5279;SDS011;2663;53.588;10.010;2023-06-10T03:11:48;14.27;;;3.30;;
5279;SDS011;2663;53.588;10.010;2023-06-10T03:14:15;9.23;;;2.73;;
5279;SDS011;2663;53.588;10.010;2023-06-10T03:16:42;5.33;;;2.53;;
5279;SDS011;2663;53.588;10.010;2023-06-10T03:19:10;8.20;;;2.77;;
5279;SDS011;2663;53.588;10.010;2023-06-10T03:21:37;5.50;;;2.50;;
5279;SDS011;2663;53.588;10.010;2023-06-10T03:24:04;9.80;;;2.80;;
5279;SDS011;2663;53.588;10.010;2023-06-10T03:26:32;5.73;;;2.03;;
5279;SDS011;2663;53.588;10.010;2023-06-10T03:28:58;11.37;;;3.10;;
5279;SDS011;2663;53.588;10.010;2023-06-10T03:31:25;12.20;;;2.40;;
5279;SDS011;2663;53.588;10.010;2023-06-10T03:33:52;5.23;;;2.60;;
5279;SDS011;2663;53.588;10.010;2023-06-10T03:36:18;8.60;;;3.20;;
5279;SDS011;2663;53.588;10.010;2023-06-10T03:38:45;13.73;;;2.50;;
5279;SDS011;2663;53.588;10.010;2023-06-10T03:41:12;4.50;;;2.50;;
5279;SDS011;2663;53.588;10.010;2023-06-10T03:43:38;5.00;;;2.57;;
5279;SDS011;2663;53.588;10.010;2023-06-10T03:46:06;8.57;;;2.90;;
5279;SDS011;2663;53.588;10.010;2023-06-10T03:48:33;5.40;;;2.70;;
5279;SDS011;2663;53.588;10.010;2023-06-10T03:51:00;5.33;;;2.90;;
5279;SDS011;2663;53.588;10.010;2023-06-10T03:53:27;10.50;;;2.70;;
5279;SDS011;2663;53.588;10.010;2023-06-10T03:55:53;10.50;;;2.67;;
5279;SDS011;2663;53.588;10.010;2023-06-10T03:58:20;13.00;;;2.93;;
5279;SDS011;2663;53.588;10.010;2023-06-10T04:00:47;5.93;;;2.30;;
5279;SDS011;2663;53.588;10.010;2023-06-10T04:03:15;5.10;;;2.43;;
5279;SDS011;2663;53.588;10.010;2023-06-10T04:05:42;10.50;;;2.73;;
5279;SDS011;2663;53.588;10.010;2023-06-10T04:08:09;6.57;;;2.70;;
5279;SDS011;2663;53.588;10.010;2023-06-10T04:10:36;5.90;;;2.67;;
5279;SDS011;2663;53.588;10.010;2023-06-10T04:13:03;6.50;;;2.60;;
5279;SDS011;2663;53.588;10.010;2023-06-10T04:15:30;10.33;;;2.03;;
5279;SDS011;2663;53.588;10.010;2023-06-10T04:17:59;10.13;;;2.00;;
5279;SDS011;2663;53.588;10.010;2023-06-10T04:20:27;9.63;;;2.77;;
5279;SDS011;2663;53.588;10.010;2023-06-10T04:22:54;11.50;;;2.77;;
5279;SDS011;2663;53.588;10.010;2023-06-10T04:25:21;8.27;;;2.50;;
5279;SDS011;2663;53.588;10.010;2023-06-10T04:27:47;7.93;;;2.83;;
5279;SDS011;2663;53.588;10.010;2023-06-10T04:30:15;6.37;;;2.53;;
5279;SDS011;2663;53.588;10.010;2023-06-10T04:32:42;6.23;;;2.13;;
5279;SDS011;2663;53.588;10.010;2023-06-10T04:35:11;11.50;;;2.57;;
5279;SDS011;2663;53.588;10.010;2023-06-10T04:37:38;5.80;;;2.20;;
5279;SDS011;2663;53.588;10.010;2023-06-10T04:40:07;10.93;;;2.53;;
5279;SDS011;2663;53.588;10.010;2023-06-10T04:42:35;18.10;;;2.23;;
5279;SDS011;2663;53.588;10.010;2023-06-10T04:45:02;9.20;;;2.47;;
5279;SDS011;2663;53.588;10.010;2023-06-10T04:47:30;10.50;;;2.33;;
5279;SDS011;2663;53.588;10.010;2023-06-10T04:50:00;4.80;;;2.43;;
5279;SDS011;2663;53.588;10.010;2023-06-10T04:52:27;8.40;;;2.13;;
5279;SDS011;2663;53.588;10.010;2023-06-10T04:54:54;6.67;;;2.10;;
5279;SDS011;2663;53.588;10.010;2023-06-10T04:57:21;7.47;;;2.80;;
5279;SDS011;2663;53.588;10.010;2023-06-10T04:59:48;8.20;;;2.33;;
5279;SDS011;2663;53.588;10.010;2023-06-10T05:02:14;7.60;;;2.23;;
5279;SDS011;2663;53.588;10.010;2023-06-10T05:04:41;4.67;;;2.07;;
5279;SDS011;2663;53.588;10.010;2023-06-10T05:07:08;8.83;;;2.53;;
5279;SDS011;2663;53.588;10.010;2023-06-10T05:09:35;7.13;;;2.27;;
5279;SDS011;2663;53.588;10.010;2023-06-10T05:12:02;8.20;;;2.93;;
5279;SDS011;2663;53.588;10.010;2023-06-10T05:14:29;10.30;;;2.97;;
5279;SDS011;2663;53.588;10.010;2023-06-10T05:16:55;10.13;;;2.40;;
5279;SDS011;2663;53.588;10.010;2023-06-10T05:19:22;6.23;;;1.93;;
5279;SDS011;2663;53.588;10.010;2023-06-10T05:21:49;12.77;;;2.53;;
5279;SDS011;2663;53.588;10.010;2023-06-10T05:24:15;12.33;;;2.27;;
5279;SDS011;2663;53.588;10.010;2023-06-10T05:26:42;11.03;;;2.53;;
5279;SDS011;2663;53.588;10.010;2023-06-10T05:29:09;5.60;;;2.67;;
5279;SDS011;2663;53.588;10.010;2023-06-10T05:31:36;5.50;;;2.50;;
5279;SDS011;2663;53.588;10.010;2023-06-10T05:34:03;10.23;;;2.77;;
5279;SDS011;2663;53.588;10.010;2023-06-10T05:36:30;12.30;;;2.40;;
5279;SDS011;2663;53.588;10.010;2023-06-10T05:38:56;5.93;;;2.00;;
5279;SDS011;2663;53.588;10.010;2023-06-10T05:41:23;8.40;;;2.40;;
5279;SDS011;2663;53.588;10.010;2023-06-10T05:43:50;9.50;;;2.87;;
5279;SDS011;2663;53.588;10.010;2023-06-10T05:46:17;9.57;;;2.87;;
5279;SDS011;2663;53.588;10.010;2023-06-10T05:48:43;7.53;;;2.30;;
5279;SDS011;2663;53.588;10.010;2023-06-10T05:51:10;10.20;;;2.47;;
5279;SDS011;2663;53.588;10.010;2023-06-10T05:53:37;6.13;;;2.27;;
5279;SDS011;2663;53.588;10.010;2023-06-10T05:56:04;14.77;;;3.10;;
5279;SDS011;2663;53.588;10.010;2023-06-10T05:58:31;13.10;;;2.43;;
5279;SDS011;2663;53.588;10.010;2023-06-10T06:00:58;10.33;;;2.80;;
5279;SDS011;2663;53.588;10.010;2023-06-10T06:03:24;6.53;;;3.03;;
5279;SDS011;2663;53.588;10.010;2023-06-10T06:05:51;11.50;;;2.40;;
5279;SDS011;2663;53.588;10.010;2023-06-10T06:08:18;6.33;;;1.90;;
5279;SDS011;2663;53.588;10.010;2023-06-10T06:10:45;6.97;;;2.20;;
5279;SDS011;2663;53.588;10.010;2023-06-10T06:13:12;5.50;;;2.20;;
5279;SDS011;2663;53.588;10.010;2023-06-10T06:15:38;12.50;;;1.90;;
5279;SDS011;2663;53.588;10.010;2023-06-10T06:18:05;7.60;;;2.50;;
5279;SDS011;2663;53.588;10.010;2023-06-10T06:20:32;9.83;;;2.07;;
5279;SDS011;2663;53.588;10.010;2023-06-10T06:22:59;6.60;;;2.23;;
5279;SDS011;2663;53.588;10.010;2023-06-10T06:25:25;12.33;;;3.13;;
5279;SDS011;2663;53.588;10.010;2023-06-10T06:27:52;9.67;;;2.90;;
5279;SDS011;2663;53.588;10.010;2023-06-10T06:30:19;11.27;;;2.70;;
5279;SDS011;2663;53.588;10.010;2023-06-10T06:32:46;6.20;;;2.83;;
5279;SDS011;2663;53.588;10.010;2023-06-10T06:35:12;15.70;;;4.03;;
5279;SDS011;2663;53.588;10.010;2023-06-10T06:37:39;10.27;;;2.70;;
5279;SDS011;2663;53.588;10.010;2023-06-10T06:40:06;10.70;;;2.90;;
5279;SDS011;2663;53.588;10.010;2023-06-10T06:42:33;6.03;;;2.63;;
5279;SDS011;2663;53.588;10.010;2023-06-10T06:45:00;11.97;;;3.17;;
5279;SDS011;2663;53.588;10.010;2023-06-10T06:47:27;11.60;;;2.77;;
5279;SDS011;2663;53.588;10.010;2023-06-10T06:49:54;8.20;;;2.03;;
5279;SDS011;2663;53.588;10.010;2023-06-10T06:52:20;7.90;;;2.63;;
5279;SDS011;2663;53.588;10.010;2023-06-10T06:54:48;5.97;;;2.30;;
5279;SDS011;2663;53.588;10.010;2023-06-10T06:57:15;10.20;;;3.03;;
5279;SDS011;2663;53.588;10.010;2023-06-10T06:59:42;7.87;;;2.70;;
5279;SDS011;2663;53.588;10.010;2023-06-10T07:02:10;11.07;;;2.07;;
5279;SDS011;2663;53.588;10.010;2023-06-10T07:04:37;16.77;;;2.70;;
5279;SDS011;2663;53.588;10.010;2023-06-10T07:07:04;11.70;;;2.27;;
5279;SDS011;2663;53.588;10.010;2023-06-10T07:09:33;14.20;;;2.50;;
5279;SDS011;2663;53.588;10.010;2023-06-10T07:12:00;8.53;;;2.17;;
5279;SDS011;2663;53.588;10.010;2023-06-10T07:14:27;9.53;;;2.33;;
5279;SDS011;2663;53.588;10.010;2023-06-10T07:16:53;11.93;;;2.60;;
5279;SDS011;2663;53.588;10.010;2023-06-10T07:19:20;8.63;;;2.67;;
5279;SDS011;2663;53.588;10.010;2023-06-10T07:21:47;9.97;;;2.87;;
5279;SDS011;2663;53.588;10.010;2023-06-10T07:24:14;7.83;;;2.57;;
5279;SDS011;2663;53.588;10.010;2023-06-10T07:26:40;11.50;;;3.00;;
5279;SDS011;2663;53.588;10.010;2023-06-10T07:29:07;14.57;;;2.93;;
5279;SDS011;2663;53.588;10.010;2023-06-10T07:31:34;10.93;;;2.97;;
5279;SDS011;2663;53.588;10.010;2023-06-10T07:34:01;20.80;;;2.93;;
5279;SDS011;2663;53.588;10.010;2023-06-10T07:36:28;11.97;;;3.40;;
5279;SDS011;2663;53.588;10.010;2023-06-10T07:38:55;6.80;;;3.60;;
5279;SDS011;2663;53.588;10.010;2023-06-10T07:41:22;6.23;;;3.03;;
5279;SDS011;2663;53.588;10.010;2023-06-10T07:43:52;6.77;;;2.70;;
5279;SDS011;2663;53.588;10.010;2023-06-10T07:46:21;19.23;;;4.73;;
5279;SDS011;2663;53.588;10.010;2023-06-10T07:48:48;11.07;;;2.37;;
5279;SDS011;2663;53.588;10.010;2023-06-10T07:51:16;8.90;;;2.93;;
5279;SDS011;2663;53.588;10.010;2023-06-10T07:53:43;12.40;;;3.53;;
5279;SDS011;2663;53.588;10.010;2023-06-10T07:56:10;11.60;;;3.37;;
5279;SDS011;2663;53.588;10.010;2023-06-10T07:58:36;8.33;;;3.47;;
5279;SDS011;2663;53.588;10.010;2023-06-10T08:01:03;6.80;;;2.67;;
5279;SDS011;2663;53.588;10.010;2023-06-10T08:03:30;6.00;;;2.63;;
5279;SDS011;2663;53.588;10.010;2023-06-10T08:05:57;7.07;;;4.00;;
5279;SDS011;2663;53.588;10.010;2023-06-10T08:08:24;7.43;;;2.93;;
5279;SDS011;2663;53.588;10.010;2023-06-10T08:10:51;4.37;;;2.23;;
5279;SDS011;2663;53.588;10.010;2023-06-10T08:13:17;10.83;;;3.07;;
5279;SDS011;2663;53.588;10.010;2023-06-10T08:15:44;26.20;;;3.73;;
5279;SDS011;2663;53.588;10.010;2023-06-10T08:18:12;19.43;;;3.00;;
5279;SDS011;2663;53.588;10.010;2023-06-10T08:20:39;6.70;;;2.57;;
5279;SDS011;2663;53.588;10.010;2023-06-10T08:23:05;8.80;;;3.10;;
5279;SDS011;2663;53.588;10.010;2023-06-10T08:25:32;6.83;;;2.67;;
5279;SDS011;2663;53.588;10.010;2023-06-10T08:27:59;12.30;;;3.43;;
5279;SDS011;2663;53.588;10.010;2023-06-10T08:30:25;9.20;;;3.07;;
5279;SDS011;2663;53.588;10.010;2023-06-10T08:32:52;6.33;;;3.00;;
5279;SDS011;2663;53.588;10.010;2023-06-10T08:35:19;10.40;;;2.90;;
5279;SDS011;2663;53.588;10.010;2023-06-10T08:37:46;10.00;;;2.90;;
5279;SDS011;2663;53.588;10.010;2023-06-10T08:40:12;8.80;;;2.83;;
5279;SDS011;2663;53.588;10.010;2023-06-10T08:42:41;7.80;;;2.90;;
5279;SDS011;2663;53.588;10.010;2023-06-10T08:45:13;8.83;;;2.80;;
5279;SDS011;2663;53.588;10.010;2023-06-10T08:47:45;13.67;;;3.33;;
5279;SDS011;2663;53.588;10.010;2023-06-10T08:50:14;12.30;;;2.60;;
5279;SDS011;2663;53.588;10.010;2023-06-10T08:52:43;6.60;;;3.20;;
5279;SDS011;2663;53.588;10.010;2023-06-10T08:55:23;5.13;;;2.60;;
5279;SDS011;2663;53.588;10.010;2023-06-10T08:58:01;9.33;;;3.73;;
5279;SDS011;2663;53.588;10.010;2023-06-10T09:00:28;10.03;;;3.57;;
5279;SDS011;2663;53.588;10.010;2023-06-10T09:02:56;14.53;;;4.37;;
5279;SDS011;2663;53.588;10.010;2023-06-10T09:05:27;13.47;;;3.67;;
5279;SDS011;2663;53.588;10.010;2023-06-10T09:07:56;13.33;;;3.30;;
5279;SDS011;2663;53.588;10.010;2023-06-10T09:10:23;13.20;;;3.97;;
5279;SDS011;2663;53.588;10.010;2023-06-10T09:12:51;11.30;;;3.20;;
5279;SDS011;2663;53.588;10.010;2023-06-10T09:15:18;14.33;;;3.07;;
5279;SDS011;2663;53.588;10.010;2023-06-10T09:17:45;5.30;;;2.93;;
5279;SDS011;2663;53.588;10.010;2023-06-10T09:20:12;10.33;;;3.67;;
5279;SDS011;2663;53.588;10.010;2023-06-10T09:22:40;20.13;;;3.87;;
5279;SDS011;2663;53.588;10.010;2023-06-10T09:25:09;23.47;;;3.07;;
5279;SDS011;2663;53.588;10.010;2023-06-10T09:27:48;9.10;;;3.53;;
5279;SDS011;2663;53.588;10.010;2023-06-10T09:30:24;6.00;;;3.40;;
5279;SDS011;2663;53.588;10.010;2023-06-10T09:33:01;19.40;;;3.60;;
5279;SDS011;2663;53.588;10.010;2023-06-10T09:35:35;9.33;;;3.63;;
5279;SDS011;2663;53.588;10.010;2023-06-10T09:38:02;9.57;;;3.97;;
5279;SDS011;2663;53.588;10.010;2023-06-10T09:40:29;11.10;;;3.57;;
5279;SDS011;2663;53.588;10.010;2023-06-10T09:42:59;11.20;;;3.23;;
5279;SDS011;2663;53.588;10.010;2023-06-10T09:45:29;7.80;;;3.43;;
5279;SDS011;2663;53.588;10.010;2023-06-10T09:48:00;9.40;;;4.10;;
5279;SDS011;2663;53.588;10.010;2023-06-10T09:50:27;10.73;;;3.83;;
5279;SDS011;2663;53.588;10.010;2023-06-10T09:52:59;11.50;;;3.60;;
5279;SDS011;2663;53.588;10.010;2023-06-10T09:55:26;11.00;;;3.20;;
5279;SDS011;2663;53.588;10.010;2023-06-10T09:57:53;11.33;;;4.20;;
5279;SDS011;2663;53.588;10.010;2023-06-10T10:00:21;6.60;;;2.90;;
5279;SDS011;2663;53.588;10.010;2023-06-10T10:02:52;10.20;;;3.60;;
5279;SDS011;2663;53.588;10.010;2023-06-10T10:05:21;10.07;;;3.23;;
5279;SDS011;2663;53.588;10.010;2023-06-10T10:07:49;9.13;;;3.03;;
5279;SDS011;2663;53.588;10.010;2023-06-10T10:10:17;9.90;;;3.63;;
5279;SDS011;2663;53.588;10.010;2023-06-10T10:12:48;12.60;;;3.20;;
5279;SDS011;2663;53.588;10.010;2023-06-10T10:15:19;6.50;;;3.17;;
5279;SDS011;2663;53.588;10.010;2023-06-10T10:20:33;12.47;;;4.13;;
5279;SDS011;2663;53.588;10.010;2023-06-10T10:23:03;12.23;;;4.03;;
5279;SDS011;2663;53.588;10.010;2023-06-10T10:25:32;8.10;;;3.43;;
5279;SDS011;2663;53.588;10.010;2023-06-10T10:28:05;8.80;;;3.67;;
5279;SDS011;2663;53.588;10.010;2023-06-10T10:30:39;12.83;;;3.63;;
5279;SDS011;2663;53.588;10.010;2023-06-10T10:33:13;10.87;;;3.63;;
5279;SDS011;2663;53.588;10.010;2023-06-10T10:35:48;11.77;;;3.87;;
5279;SDS011;2663;53.588;10.010;2023-06-10T10:38:16;8.70;;;3.40;;
5279;SDS011;2663;53.588;10.010;2023-06-10T10:40:43;16.40;;;3.87;;
5279;SDS011;2663;53.588;10.010;2023-06-10T10:43:11;11.23;;;3.70;;
5279;SDS011;2663;53.588;10.010;2023-06-10T10:45:39;8.70;;;3.70;;
5279;SDS011;2663;53.588;10.010;2023-06-10T10:48:07;14.30;;;4.17;;
5279;SDS011;2663;53.588;10.010;2023-06-10T10:50:38;7.90;;;2.97;;
5279;SDS011;2663;53.588;10.010;2023-06-10T10:53:05;11.83;;;4.43;;
5279;SDS011;2663;53.588;10.010;2023-06-10T10:55:33;11.80;;;4.33;;
5279;SDS011;2663;53.588;10.010;2023-06-10T10:58:07;14.90;;;3.60;;
5279;SDS011;2663;53.588;10.010;2023-06-10T11:00:35;8.83;;;3.53;;
5279;SDS011;2663;53.588;10.010;2023-06-10T11:05:45;12.93;;;4.10;;
5279;SDS011;2663;53.588;10.010;2023-06-10T11:16:31;6.53;;;4.17;;
5279;SDS011;2663;53.588;10.010;2023-06-10T11:19:08;11.63;;;4.30;;
5279;SDS011;2663;53.588;10.010;2023-06-10T11:21:57;16.37;;;4.47;;
5279;SDS011;2663;53.588;10.010;2023-06-10T11:24:29;7.60;;;3.03;;
5279;SDS011;2663;53.588;10.010;2023-06-10T11:32:34;18.87;;;4.17;;
5279;SDS011;2663;53.588;10.010;2023-06-10T11:35:04;8.53;;;3.87;;
5279;SDS011;2663;53.588;10.010;2023-06-10T11:37:33;12.33;;;3.47;;
5279;SDS011;2663;53.588;10.010;2023-06-10T11:40:00;13.60;;;4.90;;
5279;SDS011;2663;53.588;10.010;2023-06-10T11:42:28;11.70;;;4.30;;
5279;SDS011;2663;53.588;10.010;2023-06-10T11:44:55;14.50;;;4.70;;
5279;SDS011;2663;53.588;10.010;2023-06-10T11:47:22;12.10;;;4.50;;
5279;SDS011;2663;53.588;10.010;2023-06-10T11:49:55;14.43;;;4.37;;
5279;SDS011;2663;53.588;10.010;2023-06-10T11:52:26;8.73;;;4.70;;
5279;SDS011;2663;53.588;10.010;2023-06-10T11:54:54;12.87;;;4.20;;
5279;SDS011;2663;53.588;10.010;2023-06-10T11:57:21;14.70;;;4.50;;
5279;SDS011;2663;53.588;10.010;2023-06-10T11:59:48;8.13;;;3.77;;
5279;SDS011;2663;53.588;10.010;2023-06-10T12:02:16;18.13;;;4.50;;
5279;SDS011;2663;53.588;10.010;2023-06-10T12:04:45;12.70;;;4.00;;
5279;SDS011;2663;53.588;10.010;2023-06-10T12:07:18;14.03;;;3.93;;
5279;SDS011;2663;53.588;10.010;2023-06-10T12:09:46;7.87;;;4.10;;
5279;SDS011;2663;53.588;10.010;2023-06-10T12:12:13;13.33;;;4.27;;
5279;SDS011;2663;53.588;10.010;2023-06-10T12:20:01;17.83;;;4.40;;
5279;SDS011;2663;53.588;10.010;2023-06-10T12:22:39;7.27;;;4.70;;
5279;SDS011;2663;53.588;10.010;2023-06-10T12:25:07;11.97;;;5.13;;
5279;SDS011;2663;53.588;10.010;2023-06-10T12:27:36;15.60;;;5.20;;
5279;SDS011;2663;53.588;10.010;2023-06-10T12:30:04;11.63;;;5.30;;
5279;SDS011;2663;53.588;10.010;2023-06-10T12:32:43;6.83;;;4.20;;
5279;SDS011;2663;53.588;10.010;2023-06-10T12:35:12;6.77;;;4.73;;
5279;SDS011;2663;53.588;10.010;2023-06-10T12:37:41;12.43;;;3.97;;
5279;SDS011;2663;53.588;10.010;2023-06-10T12:40:09;11.87;;;5.13;;
5279;SDS011;2663;53.588;10.010;2023-06-10T12:42:36;15.23;;;4.50;;
5279;SDS011;2663;53.588;10.010;2023-06-10T12:45:04;11.53;;;4.50;;
5279;SDS011;2663;53.588;10.010;2023-06-10T12:47:34;21.43;;;5.47;;
5279;SDS011;2663;53.588;10.010;2023-06-10T12:50:04;15.20;;;5.50;;
5279;SDS011;2663;53.588;10.010;2023-06-10T12:52:31;13.03;;;4.90;;
5279;SDS011;2663;53.588;10.010;2023-06-10T12:54:58;6.50;;;4.10;;
5279;SDS011;2663;53.588;10.010;2023-06-10T12:57:26;10.03;;;4.57;;
5279;SDS011;2663;53.588;10.010;2023-06-10T12:59:53;18.73;;;4.97;;
5279;SDS011;2663;53.588;10.010;2023-06-10T13:02:22;20.20;;;5.60;;
5279;SDS011;2663;53.588;10.010;2023-06-10T13:04:50;12.13;;;5.43;;
5279;SDS011;2663;53.588;10.010;2023-06-10T13:07:17;7.57;;;4.50;;
5279;SDS011;2663;53.588;10.010;2023-06-10T13:09:44;5.97;;;4.13;;
5279;SDS011;2663;53.588;10.010;2023-06-10T13:12:15;8.73;;;5.00;;
5279;SDS011;2663;53.588;10.010;2023-06-10T13:14:52;7.03;;;4.50;;
5279;SDS011;2663;53.588;10.010;2023-06-10T13:17:20;12.00;;;4.63;;
5279;SDS011;2663;53.588;10.010;2023-06-10T13:19:47;11.60;;;4.90;;
5279;SDS011;2663;53.588;10.010;2023-06-10T13:22:15;11.33;;;4.40;;
5279;SDS011;2663;53.588;10.010;2023-06-10T13:24:42;8.73;;;4.90;;
5279;SDS011;2663;53.588;10.010;2023-06-10T13:27:09;10.53;;;5.60;;
5279;SDS011;2663;53.588;10.010;2023-06-10T13:29:36;14.87;;;6.00;;
5279;SDS011;2663;53.588;10.010;2023-06-10T13:32:03;12.03;;;4.20;;
5279;SDS011;2663;53.588;10.010;2023-06-10T13:34:30;7.37;;;4.00;;
5279;SDS011;2663;53.588;10.010;2023-06-10T13:36:56;13.17;;;5.47;;
5279;SDS011;2663;53.588;10.010;2023-06-10T13:39:23;13.10;;;4.50;;
5279;SDS011;2663;53.588;10.010;2023-06-10T13:41:50;10.70;;;3.77;;
5279;SDS011;2663;53.588;10.010;2023-06-10T13:44:18;9.30;;;4.23;;
5279;SDS011;2663;53.588;10.010;2023-06-10T13:46:44;11.13;;;4.13;;
5279;SDS011;2663;53.588;10.010;2023-06-10T13:49:15;8.63;;;4.00;;
5279;SDS011;2663;53.588;10.010;2023-06-10T13:51:41;18.93;;;3.90;;
5279;SDS011;2663;53.588;10.010;2023-06-10T13:54:08;14.37;;;4.27;;
5279;SDS011;2663;53.588;10.010;2023-06-10T13:56:35;10.43;;;3.90;;
5279;SDS011;2663;53.588;10.010;2023-06-10T13:59:05;10.27;;;4.03;;
5279;SDS011;2663;53.588;10.010;2023-06-10T14:01:31;10.63;;;4.53;;
5279;SDS011;2663;53.588;10.010;2023-06-10T14:03:59;10.40;;;4.30;;
5279;SDS011;2663;53.588;10.010;2023-06-10T14:06:26;9.90;;;4.33;;
5279;SDS011;2663;53.588;10.010;2023-06-10T14:08:53;9.83;;;4.00;;
5279;SDS011;2663;53.588;10.010;2023-06-10T14:11:20;10.73;;;4.20;;
5279;SDS011;2663;53.588;10.010;2023-06-10T14:13:47;10.80;;;4.10;;
5279;SDS011;2663;53.588;10.010;2023-06-10T14:16:14;16.37;;;4.50;;
5279;SDS011;2663;53.588;10.010;2023-06-10T14:18:41;20.17;;;5.07;;
5279;SDS011;2663;53.588;10.010;2023-06-10T14:21:08;18.73;;;4.43;;
5279;SDS011;2663;53.588;10.010;2023-06-10T14:23:34;19.57;;;5.37;;
5279;SDS011;2663;53.588;10.010;2023-06-10T14:26:01;18.90;;;5.00;;
5279;SDS011;2663;53.588;10.010;2023-06-10T14:28:29;17.17;;;4.03;;
5279;SDS011;2663;53.588;10.010;2023-06-10T14:30:56;19.07;;;4.90;;
5279;SDS011;2663;53.588;10.010;2023-06-10T14:33:24;10.90;;;4.30;;
5279;SDS011;2663;53.588;10.010;2023-06-10T14:35:50;10.00;;;3.03;;
5279;SDS011;2663;53.588;10.010;2023-06-10T14:38:17;16.03;;;4.30;;
5279;SDS011;2663;53.588;10.010;2023-06-10T14:40:44;13.50;;;3.73;;
5279;SDS011;2663;53.588;10.010;2023-06-10T14:43:11;8.53;;;3.37;;
5279;SDS011;2663;53.588;10.010;2023-06-10T14:45:38;12.27;;;3.90;;
5279;SDS011;2663;53.588;10.010;2023-06-10T14:48:06;11.60;;;4.00;;
5279;SDS011;2663;53.588;10.010;2023-06-10T14:50:37;10.60;;;3.60;;
5279;SDS011;2663;53.588;10.010;2023-06-10T14:53:04;12.00;;;4.63;;
5279;SDS011;2663;53.588;10.010;2023-06-10T14:55:31;10.30;;;4.00;;
5279;SDS011;2663;53.588;10.010;2023-06-10T14:57:58;16.43;;;4.30;;
5279;SDS011;2663;53.588;10.010;2023-06-10T15:00:24;16.67;;;4.20;;
5279;SDS011;2663;53.588;10.010;2023-06-10T15:02:52;9.83;;;3.50;;
5279;SDS011;2663;53.588;10.010;2023-06-10T15:05:21;14.43;;;3.97;;
5279;SDS011;2663;53.588;10.010;2023-06-10T15:07:48;14.73;;;4.27;;
5279;SDS011;2663;53.588;10.010;2023-06-10T15:10:15;8.40;;;3.67;;
5279;SDS011;2663;53.588;10.010;2023-06-10T15:12:42;12.07;;;4.90;;
5279;SDS011;2663;53.588;10.010;2023-06-10T15:15:09;9.07;;;4.40;;
5279;SDS011;2663;53.588;10.010;2023-06-10T15:17:36;16.10;;;4.93;;
5279;SDS011;2663;53.588;10.010;2023-06-10T15:20:03;12.37;;;4.83;;
5279;SDS011;2663;53.588;10.010;2023-06-10T15:22:31;8.50;;;3.80;;
5279;SDS011;2663;53.588;10.010;2023-06-10T15:25:01;23.73;;;4.53;;
5279;SDS011;2663;53.588;10.010;2023-06-10T15:27:42;10.27;;;4.00;;
5279;SDS011;2663;53.588;10.010;2023-06-10T15:30:09;15.53;;;4.73;;